Time;durP1;ratioP1;P1;durP2;ratioP2;P2;SDS_P1;SDS_P2;PMS_P1;PMS_P2;Temp;Humidity;BMP_temperature;BMP_pressure;BME280_temperature;BME280_humidity;BME280_pressure;Samples;Min_cycle;Max_cycle;Signal;HPM_P1;HPM_P2
2021/09/18 00:02:26;;;;;;;1.90;1.48;;;;;;;10.56;100.00;100984.47;4911744;28;20039;-84
2021/09/18 00:04:52;;;;;;;1.27;1.25;;;;;;;10.55;100.00;100987.97;4904660;28;20141;-84
2021/09/18 00:07:19;;;;;;;2.38;1.77;;;;;;;10.54;100.00;100987.06;4916278;28;20266;-84
2021/09/18 00:09:46;;;;;;;2.38;0.98;;;;;;;10.53;100.00;100987.97;4917888;28;20047;-85
2021/09/18 00:12:21;;;;;;;1.75;1.08;;;;;;;10.50;100.00;100984.50;4938580;28;20058;-84
2021/09/18 00:14:48;;;;;;;2.17;1.13;;;;;;;10.47;100.00;100982.75;4921069;28;20082;-85
2021/09/18 00:17:14;;;;;;;2.50;1.63;;;;;;;10.47;100.00;100985.38;4923154;28;20540;-83
2021/09/18 00:19:41;;;;;;;1.75;1.15;;;;;;;10.45;100.00;100992.34;4898881;28;20055;-85
2021/09/18 00:22:10;;;;;;;2.75;1.50;;;;;;;10.42;100.00;100992.38;4938258;28;20145;-85
2021/09/18 00:24:37;;;;;;;3.90;1.10;;;;;;;10.38;100.00;100995.88;4917095;28;20554;-83
2021/09/18 00:27:05;;;;;;;1.73;1.10;;;;;;;10.36;100.00;100987.13;4905735;28;20907;-85
2021/09/18 00:29:31;;;;;;;3.28;1.30;;;;;;;10.34;100.00;100988.84;4923174;28;20051;-85
2021/09/18 00:31:58;;;;;;;2.78;1.08;;;;;;;10.32;100.00;100994.09;4929735;28;20709;-84
2021/09/18 00:34:25;;;;;;;1.17;1.08;;;;;;;10.30;100.00;100994.97;4923959;28;20086;-85
2021/09/18 00:36:51;;;;;;;4.43;1.42;;;;;;;10.28;100.00;100994.97;4903228;28;20070;-83
2021/09/18 00:39:18;;;;;;;3.03;1.42;;;;;;;10.24;100.00;100998.47;4919194;28;20126;-83
2021/09/18 00:41:49;;;;;;;4.47;1.40;;;;;;;10.22;100.00;100995.88;4919153;28;20055;-83
2021/09/18 00:44:19;;;;;;;1.65;1.13;;;;;;;10.19;100.00;100997.63;4904438;28;20051;-83
2021/09/18 00:46:51;;;;;;;1.95;1.00;;;;;;;10.19;100.00;100995.00;4907606;28;20622;-82
2021/09/18 00:49:18;;;;;;;1.25;0.63;;;;;;;10.20;100.00;100995.00;4916955;28;20051;-81
2021/09/18 00:51:46;;;;;;;2.60;1.17;;;;;;;10.19;100.00;100997.63;4920479;28;20055;-83
2021/09/18 00:54:15;;;;;;;0.85;0.85;;;;;;;10.16;100.00;100995.88;4915445;28;20047;-85
2021/09/18 00:56:43;;;;;;;4.10;0.77;;;;;;;10.13;100.00;100992.38;4919632;28;20055;-83
2021/09/18 00:59:11;;;;;;;0.88;0.88;;;;;;;10.09;100.00;100994.16;4919533;28;20047;-83
2021/09/18 01:01:37;;;;;;;2.80;1.08;;;;;;;10.06;100.00;100999.38;4896730;28;20047;-83
2021/09/18 01:04:04;;;;;;;1.88;1.48;;;;;;;10.04;100.00;101001.13;4920580;28;20058;-83
2021/09/18 01:06:31;;;;;;;2.15;1.25;;;;;;;10.03;100.00;100996.78;4919144;28;20676;-83
2021/09/18 01:09:00;;;;;;;2.92;1.73;;;;;;;9.99;100.00;100993.28;4918924;28;20058;-83
2021/09/18 01:11:30;;;;;;;2.08;1.35;;;;;;;9.98;100.00;100993.28;4908782;29;20112;-83
2021/09/18 01:13:57;;;;;;;1.20;1.17;;;;;;;10.00;100.00;100991.53;4884757;29;20050;-83
2021/09/18 01:16:25;;;;;;;1.60;1.50;;;;;;;10.01;100.00;100990.66;4893567;29;20139;-83
2021/09/18 01:18:52;;;;;;;2.22;1.17;;;;;;;10.00;100.00;100994.13;4875621;29;20056;-83
2021/09/18 01:21:20;;;;;;;2.03;1.17;;;;;;;9.98;100.00;100994.16;4899402;29;20055;-84
2021/09/18 01:23:47;;;;;;;1.50;1.17;;;;;;;9.95;100.00;100988.94;4912977;29;20059;-83
2021/09/18 01:26:13;;;;;;;1.83;1.70;;;;;;;9.93;100.00;100999.41;4898897;29;20055;-83
2021/09/18 01:28:41;;;;;;;1.55;1.10;;;;;;;9.91;100.00;100985.44;4883222;29;20039;-83
2021/09/18 01:31:09;;;;;;;3.67;1.50;;;;;;;9.91;100.00;100997.66;4874129;29;20914;-83
2021/09/18 01:33:37;;;;;;;2.20;1.45;;;;;;;9.89;100.00;100995.00;4899116;29;20078;-84
2021/09/18 01:36:04;;;;;;;1.65;1.55;;;;;;;9.89;100.00;100995.00;4878477;29;20406;-84
2021/09/18 01:38:30;;;;;;;2.53;1.63;;;;;;;9.90;100.00;100995.91;4896491;29;20048;-84
2021/09/18 01:40:57;;;;;;;1.75;1.58;;;;;;;9.88;100.00;100995.91;4894193;29;20165;-84
2021/09/18 01:43:27;;;;;;;2.63;1.40;;;;;;;9.88;100.00;100995.91;4898387;29;20543;-84
2021/09/18 01:45:54;;;;;;;1.33;1.25;;;;;;;9.88;100.00;100993.31;4899471;29;20102;-83
2021/09/18 01:48:20;;;;;;;2.30;1.67;;;;;;;9.87;100.00;101006.38;4876676;29;20365;-84
2021/09/18 01:50:53;;;;;;;1.85;1.75;;;;;;;9.84;100.00;101008.97;4877827;29;20145;-84
2021/09/18 01:53:24;;;;;;;2.90;2.67;;;;;;;9.85;100.00;101005.50;4880933;29;20103;-84
2021/09/18 01:55:52;;;;;;;2.85;2.10;;;;;;;9.83;100.00;101002.00;4899350;29;20047;-82
2021/09/18 01:58:20;;;;;;;2.00;1.90;;;;;;;9.81;100.00;101009.00;4898608;29;20443;-83
2021/09/18 02:00:52;;;;;;;2.60;2.40;;;;;;;9.80;100.00;101005.47;4891690;29;20423;-82
2021/09/18 02:03:20;;;;;;;2.72;2.17;;;;;;;9.79;100.00;101009.00;4885458;29;20047;-83
2021/09/18 02:05:48;;;;;;;2.90;2.15;;;;;;;9.79;100.00;101013.34;4895391;29;20078;-83
2021/09/18 02:08:15;;;;;;;2.30;2.15;;;;;;;9.76;100.00;101009.88;4897959;29;20411;-84
2021/09/18 02:10:42;;;;;;;2.17;2.08;;;;;;;9.74;100.00;101011.59;4894084;29;20048;-83
2021/09/18 02:13:11;;;;;;;3.75;2.80;;;;;;;9.69;100.00;101008.09;4914365;28;20067;-83
2021/09/18 02:15:38;;;;;;;2.78;2.58;;;;;;;9.66;100.00;101004.63;4899787;28;20051;-83
2021/09/18 02:18:06;;;;;;;2.30;2.20;;;;;;;9.64;100.00;101003.75;4910481;28;20051;-83
2021/09/18 02:20:35;;;;;;;2.95;1.95;;;;;;;9.62;100.00;101005.47;4915550;28;20059;-83
2021/09/18 02:23:03;;;;;;;2.47;2.33;;;;;;;9.62;100.00;101006.38;4914679;28;20066;-83
2021/09/18 02:25:30;;;;;;;2.28;2.10;;;;;;;9.60;100.00;101003.72;4919514;28;20589;-84
2021/09/18 02:28:06;;;;;;;5.60;2.72;;;;;;;9.62;100.00;101001.16;4915826;28;20047;-84
2021/09/18 02:30:37;;;;;;;5.05;2.75;;;;;;;9.60;100.00;101002.88;4929981;28;20696;-84
2021/09/18 02:33:05;;;;;;;3.45;3.15;;;;;;;9.60;100.00;101002.88;4916735;28;20062;-83
2021/09/18 02:35:32;;;;;;;3.22;2.63;;;;;;;9.60;100.00;100995.03;4897927;28;20052;-84
2021/09/18 02:38:00;;;;;;;2.90;2.20;;;;;;;9.62;100.00;101006.38;4914289;28;20102;-83
2021/09/18 02:40:29;;;;;;;3.38;2.83;;;;;;;9.63;100.00;100997.63;4910016;28;20071;-84
2021/09/18 02:43:01;;;;;;;2.95;2.50;;;;;;;9.63;100.00;101002.88;4896655;28;20051;-83
2021/09/18 02:45:29;;;;;;;6.72;3.00;;;;;;;9.62;100.00;100995.91;4918832;28;20058;-83
2021/09/18 02:47:57;;;;;;;3.63;2.90;;;;;;;9.62;100.00;100990.69;4908985;28;20043;-83
2021/09/18 02:50:25;;;;;;;3.13;2.80;;;;;;;9.62;100.00;100995.91;4916951;28;20055;-83
2021/09/18 02:52:52;;;;;;;2.92;2.72;;;;;;;9.63;100.00;100995.03;4910588;28;20503;-83
2021/09/18 02:55:19;;;;;;;4.22;3.03;;;;;;;9.63;100.00;100988.94;4914112;28;20055;-83
2021/09/18 02:57:46;;;;;;;2.80;2.60;;;;;;;9.63;100.00;100989.78;4914413;28;20545;-83
2021/09/18 03:00:14;;;;;;;3.85;3.55;;;;;;;9.62;100.00;100988.09;4900702;28;20055;-83
2021/09/18 03:02:42;;;;;;;5.25;3.88;;;;;;;9.60;100.00;100997.66;4913487;28;20402;-84
2021/09/18 03:05:10;;;;;;;2.78;2.58;;;;;;;9.58;100.00;100995.03;4896264;28;20758;-84
2021/09/18 03:07:37;;;;;;;4.60;3.60;;;;;;;9.59;100.00;100998.50;4911991;28;20055;-83
2021/09/18 03:10:06;;;;;;;4.03;3.63;;;;;;;9.58;100.00;100996.75;4898805;28;20594;-84
2021/09/18 03:12:32;;;;;;;5.97;4.20;;;;;;;9.59;100.00;100995.91;4913389;29;20060;-83
2021/09/18 03:14:59;;;;;;;5.05;3.13;;;;;;;9.56;100.00;100988.06;4911361;29;20090;-83
2021/09/18 03:17:26;;;;;;;7.30;4.20;;;;;;;9.54;100.00;100985.47;4889016;29;20043;-83
2021/09/18 03:19:54;;;;;;;5.55;4.43;;;;;;;9.52;100.00;100986.34;4909651;28;20399;-83
2021/09/18 03:22:21;;;;;;;3.92;3.60;;;;;;;9.52;100.00;100983.72;4893090;29;20051;-83
2021/09/18 03:24:48;;;;;;;4.30;3.67;;;;;;;9.50;100.00;100980.22;4894872;29;20054;-83
2021/09/18 03:27:15;;;;;;;3.25;3.00;;;;;;;9.49;100.00;100983.69;4905304;29;20047;-84
2021/09/18 03:29:42;;;;;;;6.25;3.72;;;;;;;9.49;100.00;100981.09;4910969;29;20051;-82
2021/09/18 03:32:10;;;;;;;4.05;3.72;;;;;;;9.50;100.00;100980.22;4910485;29;20542;-82
2021/09/18 03:34:37;;;;;;;4.63;3.80;;;;;;;9.50;100.00;100983.69;4906855;29;20055;-84
2021/09/18 03:37:04;;;;;;;8.30;4.88;;;;;;;9.48;100.00;100985.44;4909829;29;20044;-85
2021/09/18 03:39:30;;;;;;;6.75;4.18;;;;;;;9.47;100.00;100978.47;4919271;28;20043;-84
2021/09/18 03:41:57;;;;;;;4.30;3.85;;;;;;;9.47;100.00;100983.69;4908786;29;20122;-83
2021/09/18 03:44:24;;;;;;;4.97;4.47;;;;;;;9.46;100.00;100989.78;4912700;29;20047;-83
2021/09/18 03:46:51;;;;;;;4.60;4.22;;;;;;;9.48;100.00;100992.41;4888860;29;20047;-83
2021/09/18 03:49:17;;;;;;;6.00;5.50;;;;;;;9.49;100.00;100994.16;4894832;29;20047;-82
2021/09/18 03:51:44;;;;;;;7.10;4.70;;;;;;;9.49;100.00;100992.44;4904929;29;20063;-83
2021/09/18 03:54:10;;;;;;;9.25;4.80;;;;;;;9.49;100.00;101000.25;4912191;29;20101;-83
2021/09/18 03:56:37;;;;;;;4.85;4.35;;;;;;;9.54;100.00;101000.25;4890337;29;20053;-83
2021/09/18 03:59:04;;;;;;;5.15;4.63;;;;;;;9.57;100.00;100995.91;4896555;29;20059;-83
2021/09/18 04:01:31;;;;;;;7.78;4.80;;;;;;;9.64;100.00;100998.53;4910888;29;20062;-83
2021/09/18 04:03:59;;;;;;;6.00;4.75;;;;;;;9.73;100.00;101003.75;4921022;28;20059;-83
2021/09/18 04:06:26;;;;;;;4.55;4.25;;;;;;;9.85;100.00;100998.50;4894718;29;20051;-84
2021/09/18 04:08:53;;;;;;;7.45;5.35;;;;;;;9.97;100.00;100992.41;4904304;29;20059;-84
2021/09/18 04:11:20;;;;;;;4.78;4.40;;;;;;;10.07;100.00;100995.88;4911608;28;20454;-83
2021/09/18 04:13:47;;;;;;;5.85;5.25;;;;;;;10.15;100.00;100991.50;4916858;28;20801;-82
2021/09/18 04:16:14;;;;;;;4.78;4.43;;;;;;;10.24;100.00;100988.00;4910131;28;20783;-83
2021/09/18 04:18:40;;;;;;;4.53;3.75;;;;;;;10.33;100.00;100990.59;4909991;28;20046;-83
2021/09/18 04:21:07;;;;;;;5.60;4.68;;;;;;;10.39;100.00;100982.78;4905808;28;20051;-83
2021/09/18 04:23:34;;;;;;;4.78;4.38;;;;;;;10.46;100.00;100993.22;4900977;28;20078;-84
2021/09/18 04:26:11;;;;;;;6.10;4.18;;;;;;;10.51;100.00;100987.09;4895527;28;20061;-86
2021/09/18 04:28:38;;;;;;;4.72;4.32;;;;;;;10.55;100.00;101001.91;4900021;28;20050;-86
2021/09/18 04:31:05;;;;;;;7.25;4.57;;;;;;;10.58;100.00;100998.41;4898826;28;20047;-85
2021/09/18 04:33:32;;;;;;;6.18;4.93;;;;;;;10.62;100.00;100994.03;4912529;28;20043;-82
2021/09/18 04:35:58;;;;;;;4.82;4.43;;;;;;;10.65;100.00;101001.88;4916266;28;20726;-85
2021/09/18 04:38:25;;;;;;;6.03;5.25;;;;;;;10.70;100.00;101005.34;4911993;28;20058;-85
2021/09/18 04:40:52;;;;;;;6.20;4.18;;;;;;;10.74;100.00;101009.69;4931610;28;20044;-84
2021/09/18 04:43:18;;;;;;;5.85;5.25;;;;;;;10.77;100.00;101014.94;4914701;28;21631;-84
2021/09/18 04:45:45;;;;;;;7.65;4.88;;;;;;;10.81;100.00;101014.03;4896555;28;20046;-85
2021/09/18 04:48:12;;;;;;;5.85;4.38;;;;;;;10.84;100.00;101021.00;4907641;28;20048;-84
2021/09/18 04:50:39;;;;;;;14.07;5.45;;;;;;;10.85;100.00;101012.28;4909550;28;20054;-84
2021/09/18 04:53:08;;;;;;;5.60;5.20;;;;;;;10.87;100.00;101014.03;4919487;28;20434;-86
2021/09/18 04:55:40;;;;;;;8.63;5.25;;;;;;;10.88;100.00;101010.50;4902049;29;22356;-85
2021/09/18 04:58:07;;;;;;;6.13;4.35;;;;;;;10.91;100.00;101009.63;4933517;28;21773;-84
2021/09/18 05:00:35;;;;;;;5.63;5.13;;;;;;;10.95;100.00;101015.72;4906496;28;20046;-85
2021/09/18 05:03:01;;;;;;;5.40;4.90;;;;;;;10.96;100.00;101015.72;4900290;28;20066;-84
2021/09/18 05:05:28;;;;;;;5.63;4.90;;;;;;;10.97;100.00;101011.34;4935527;28;20607;-85
2021/09/18 05:07:55;;;;;;;5.65;4.80;;;;;;;10.96;100.00;101015.72;4916191;28;20047;-85
2021/09/18 05:10:29;;;;;;;5.63;5.10;;;;;;;11.00;100.00;101019.19;4905207;28;20050;-84
2021/09/18 05:13:09;;;;;;;4.63;4.27;;;;;;;11.03;100.00;101016.53;4899904;29;20697;-84
2021/09/18 05:15:43;;;;;;;5.63;4.90;;;;;;;11.04;100.00;101015.66;4900474;29;20814;-85
2021/09/18 05:18:09;;;;;;;5.68;4.97;;;;;;;11.05;100.00;101022.66;4915031;29;20044;-85
2021/09/18 05:20:44;;;;;;;5.38;4.90;;;;;;;11.06;100.00;101027.88;4911847;29;20044;-85
2021/09/18 05:23:10;;;;;;;6.38;5.07;;;;;;;11.06;100.00;101022.66;4914651;29;20048;-85
2021/09/18 05:25:39;;;;;;;6.88;4.97;;;;;;;11.08;100.00;101022.63;4897241;29;20083;-85
2021/09/18 05:28:06;;;;;;;4.55;4.15;;;;;;;11.11;100.00;101024.38;4898940;29;20074;-85
2021/09/18 05:30:33;;;;;;;4.85;4.45;;;;;;;11.11;100.00;101029.59;4888303;29;20062;-85
2021/09/18 05:33:00;;;;;;;4.97;4.47;;;;;;;11.09;100.00;101038.38;4892155;29;20058;-85
2021/09/18 05:35:26;;;;;;;4.35;3.95;;;;;;;11.13;100.00;101038.34;4915657;29;20043;-85
2021/09/18 05:38:02;;;;;;;5.63;4.72;;;;;;;11.18;100.00;101044.44;4913112;29;20043;-83
2021/09/18 05:40:29;;;;;;;5.68;5.00;;;;;;;11.21;100.00;101039.16;4915824;29;20095;-84
2021/09/18 05:42:56;;;;;;;5.32;4.93;;;;;;;11.23;100.00;101043.53;4930107;28;20576;-85
2021/09/18 05:45:23;;;;;;;4.47;4.15;;;;;;;11.27;100.00;101044.38;4916965;28;20040;-84
2021/09/18 05:47:49;;;;;;;5.20;4.35;;;;;;;11.31;100.00;101048.72;4914949;29;20052;-85
2021/09/18 05:50:16;;;;;;;4.72;4.22;;;;;;;11.40;100.00;101046.03;4887368;29;20432;-85
2021/09/18 05:52:46;;;;;;;5.00;4.50;;;;;;;11.47;100.00;101036.41;4913915;29;20126;-84
2021/09/18 05:55:35;;;;;;;4.68;4.28;;;;;;;11.57;100.00;101043.31;4916103;29;20074;-84
2021/09/18 05:58:01;;;;;;;4.03;3.55;;;;;;;11.66;100.00;101041.53;4902929;29;20067;-84
2021/09/18 06:00:36;;;;;;;6.68;4.43;;;;;;;11.70;100.00;101049.34;4914492;29;20095;-85
2021/09/18 06:03:03;;;;;;;4.30;4.00;;;;;;;11.75;100.00;101055.41;4911435;28;20056;-85
2021/09/18 06:05:37;;;;;;;3.95;3.55;;;;;;;11.82;99.77;101051.00;4905207;29;20043;-85
2021/09/18 06:08:13;;;;;;;8.38;4.40;;;;;;;11.89;99.10;101052.72;4900222;29;20158;-85
2021/09/18 06:10:40;;;;;;;4.80;4.40;;;;;;;11.94;98.94;101054.41;4917914;29;20044;-84
2021/09/18 06:13:06;;;;;;;4.00;3.70;;;;;;;11.94;98.32;101051.78;4899897;29;20056;-85
2021/09/18 06:15:33;;;;;;;4.13;3.83;;;;;;;11.97;98.42;101050.06;4888385;29;20055;-85
2021/09/18 06:17:59;;;;;;;5.32;4.20;;;;;;;12.05;98.30;101056.09;4887826;29;20077;-85
2021/09/18 06:20:30;;;;;;;4.28;3.53;;;;;;;12.13;98.09;101063.03;4898186;29;20058;-84
2021/09/18 06:22:58;;;;;;;4.53;4.18;;;;;;;12.15;97.07;101056.91;4884359;29;20051;-87
2021/09/18 06:25:24;;;;;;;4.88;4.47;;;;;;;12.16;97.29;101065.63;4890240;29;20491;-83
2021/09/18 06:27:51;;;;;;;6.20;4.68;;;;;;;12.13;97.23;101069.16;4890314;29;20495;-83
2021/09/18 06:30:18;;;;;;;4.88;4.38;;;;;;;12.08;96.96;101070.94;4872039;29;20051;-85
2021/09/18 06:32:44;;;;;;;4.93;4.38;;;;;;;12.07;97.21;101069.19;4895380;29;20127;-86
2021/09/18 06:35:11;;;;;;;6.05;4.20;;;;;;;12.07;97.16;101074.44;4899083;29;20058;-84
2021/09/18 06:37:47;;;;;;;5.78;4.40;;;;;;;12.12;97.18;101072.66;4878622;29;20055;-87
2021/09/18 06:40:18;;;;;;;5.95;4.47;;;;;;;12.20;96.81;101069.97;4891345;29;20848;-87
2021/09/18 06:42:45;;;;;;;4.85;4.32;;;;;;;12.28;96.46;101065.53;4894569;29;20066;-84
2021/09/18 06:45:13;;;;;;;6.65;4.50;;;;;;;12.40;95.86;101073.28;4885715;29;20055;-82
2021/09/18 06:47:40;;;;;;;6.00;5.50;;;;;;;12.51;95.10;101077.56;4896929;28;20050;-82
2021/09/18 06:50:09;;;;;;;4.43;4.13;;;;;;;12.58;95.07;101071.38;4879053;29;20047;-87
2021/09/18 06:52:41;;;;;;;6.05;4.15;;;;;;;12.66;94.99;101071.25;4890543;29;21094;-85
2021/09/18 06:55:08;;;;;;;8.45;4.90;;;;;;;12.78;94.41;101072.91;4893543;29;20048;-81
2021/09/18 06:57:38;;;;;;;4.53;3.53;;;;;;;12.93;93.83;101074.47;4886667;29;20047;-86
2021/09/18 07:00:08;;;;;;;4.20;3.78;;;;;;;13.05;93.12;101084.84;4900940;29;21003;-84
2021/09/18 07:02:35;;;;;;;4.90;4.10;;;;;;;13.10;92.11;101075.13;4898172;29;20052;-87
2021/09/18 07:05:02;;;;;;;4.10;3.78;;;;;;;13.12;92.40;101073.34;4900405;29;20055;-82
2021/09/18 07:07:29;;;;;;;5.55;4.28;;;;;;;13.14;91.93;101081.22;4902541;29;20058;-85
2021/09/18 07:10:00;;;;;;;8.10;5.15;;;;;;;13.11;92.14;101081.25;4901624;29;20048;-82
2021/09/18 07:12:27;;;;;;;6.88;4.93;;;;;;;13.12;92.06;101083.88;4896777;29;20060;-82
2021/09/18 07:15:00;;;;;;;9.18;5.25;;;;;;;13.15;92.23;101086.44;4927139;29;20052;-81
2021/09/18 07:17:34;;;;;;;4.72;4.15;;;;;;;13.28;91.98;101086.31;4905345;29;20562;-82
2021/09/18 07:20:02;;;;;;;5.13;4.38;;;;;;;13.40;91.18;101087.03;4888729;29;20079;-82
2021/09/18 07:22:29;;;;;;;4.07;3.78;;;;;;;13.51;90.70;101084.25;4901914;29;20068;-86
2021/09/18 07:24:56;;;;;;;6.68;4.65;;;;;;;13.64;90.62;101099.88;4914094;29;20050;-81
2021/09/18 07:27:23;;;;;;;3.72;3.40;;;;;;;13.75;90.19;101094.44;4890733;29;20040;-84
2021/09/18 07:29:51;;;;;;;4.05;3.50;;;;;;;13.81;89.69;101091.72;4900763;29;20047;-81
2021/09/18 07:32:19;;;;;;;3.15;2.95;;;;;;;13.85;89.37;101090.78;4902153;29;20063;-81
2021/09/18 07:34:51;;;;;;;3.10;2.90;;;;;;;13.88;89.30;101101.25;4902983;29;20131;-88
2021/09/18 07:37:20;;;;;;;3.60;3.30;;;;;;;13.89;88.61;101103.84;4888728;29;20060;-85
2021/09/18 07:39:47;;;;;;;3.63;3.10;;;;;;;13.86;88.83;101098.66;4906741;29;20502;-81
2021/09/18 07:42:14;;;;;;;5.22;3.55;;;;;;;13.83;88.47;101101.34;4876705;29;20071;-85
2021/09/18 07:44:40;;;;;;;3.28;2.80;;;;;;;13.81;88.55;101112.78;4920123;29;20527;-85
2021/09/18 07:47:07;;;;;;;3.70;3.40;;;;;;;13.77;88.55;101101.41;4900876;29;20058;-82
2021/09/18 07:49:34;;;;;;;4.30;3.17;;;;;;;13.76;88.49;101109.34;4903089;29;20161;-86
2021/09/18 07:52:02;;;;;;;4.25;3.10;;;;;;;13.75;88.58;101108.47;4906608;29;20054;-84
2021/09/18 07:54:29;;;;;;;3.50;3.25;;;;;;;13.73;88.69;101102.38;4901102;29;20055;-82
2021/09/18 07:56:59;;;;;;;7.15;3.83;;;;;;;13.77;88.94;101111.94;4902276;29;20166;-83
2021/09/18 07:59:26;;;;;;;3.78;3.47;;;;;;;13.77;88.70;101114.59;4918369;29;20052;-85
2021/09/18 08:02:00;;;;;;;4.30;4.00;;;;;;;13.80;88.46;101116.28;4890688;29;20459;-84
2021/09/18 08:04:36;;;;;;;2.97;2.63;;;;;;;13.83;88.47;101117.13;4902049;29;20075;-84
2021/09/18 08:07:03;;;;;;;6.53;4.03;;;;;;;13.86;87.91;101117.06;4907022;29;20063;-87
2021/09/18 08:09:29;;;;;;;4.55;3.28;;;;;;;13.90;88.27;101117.91;4885687;29;20095;-87
2021/09/18 08:11:57;;;;;;;3.50;3.20;;;;;;;14.01;87.99;101115.09;4892026;29;20064;-84
2021/09/18 08:14:54;;;;;;;3.38;3.08;;;;;;;14.15;87.52;101117.50;4914968;29;20141;-85
2021/09/18 08:17:21;;;;;;;3.22;2.90;;;;;;;14.34;86.72;101120.69;4887134;29;20147;-84
2021/09/18 08:19:51;;;;;;;4.22;3.83;;;;;;;14.44;85.88;101108.25;4900256;29;20142;-86
2021/09/18 08:22:17;;;;;;;4.47;4.07;;;;;;;14.55;85.81;101108.94;4902760;29;20043;-83
2021/09/18 08:24:44;;;;;;;5.78;3.55;;;;;;;14.70;84.84;101115.69;4905164;29;20039;-84
2021/09/18 08:27:11;;;;;;;3.97;3.67;;;;;;;14.85;84.53;101111.91;4908665;29;20048;-83
2021/09/18 08:29:37;;;;;;;5.03;3.28;;;;;;;14.93;84.21;101115.25;4919715;29;20462;-86
2021/09/18 08:32:04;;;;;;;3.95;3.63;;;;;;;14.95;84.01;101120.50;4904381;29;20410;-86
2021/09/18 08:34:31;;;;;;;7.22;4.95;;;;;;;14.96;84.02;101122.25;4898808;29;20397;-85
2021/09/18 08:36:58;;;;;;;5.57;3.75;;;;;;;15.05;84.29;101122.06;4899957;29;20232;-86
2021/09/18 08:39:24;;;;;;;9.35;4.22;;;;;;;15.12;83.87;101122.78;4884735;29;20060;-84
2021/09/18 08:41:51;;;;;;;4.88;4.38;;;;;;;15.02;84.45;101124.75;4888850;29;20084;-83
2021/09/18 08:44:18;;;;;;;4.13;3.75;;;;;;;14.97;85.36;101129.25;4893105;29;20043;-81
2021/09/18 08:46:50;;;;;;;5.30;4.80;;;;;;;14.86;86.18;101135.59;4923515;29;20574;-84
2021/09/18 08:49:20;;;;;;;6.05;4.95;;;;;;;14.78;87.57;101129.59;4895870;29;20051;-84
2021/09/18 08:51:47;;;;;;;8.13;4.80;;;;;;;14.75;88.43;101132.28;4906566;29;20040;-86
2021/09/18 08:54:14;;;;;;;8.18;5.35;;;;;;;14.81;89.18;101140.09;4915415;29;20080;-82
2021/09/18 08:56:41;;;;;;;6.07;4.03;;;;;;;15.02;88.86;101141.44;4905787;29;20099;-84
2021/09/18 08:59:10;;;;;;;7.35;5.10;;;;;;;15.28;87.79;101144.44;4908923;29;20419;-81
2021/09/18 09:01:46;;;;;;;4.78;4.18;;;;;;;15.52;86.80;101143.91;4911252;29;20071;-79
2021/09/18 09:04:38;;;;;;;4.90;4.43;;;;;;;15.76;85.16;101138.13;4931335;29;20050;-82
2021/09/18 09:07:20;;;;;;;7.10;4.70;;;;;;;15.93;84.42;101145.69;4930841;29;20043;-83
2021/09/18 09:10:04;;;;;;;6.00;4.30;;;;;;;16.17;83.35;101139.84;4912624;29;20051;-82
2021/09/18 09:12:43;;;;;;;4.30;3.47;;;;;;;16.48;82.12;101144.34;4925936;29;20150;-83
2021/09/18 09:15:21;;;;;;;6.35;4.82;;;;;;;16.75;79.57;101141.03;4913782;29;20055;-83
2021/09/18 09:17:51;;;;;;;4.05;3.67;;;;;;;16.82;80.16;101150.53;4921233;29;20146;-84
2021/09/18 09:20:27;;;;;;;5.40;3.38;;;;;;;16.87;79.68;101144.19;4934464;28;20105;-86
2021/09/18 09:23:02;;;;;;;4.40;4.00;;;;;;;16.82;79.69;101143.47;4921968;29;20079;-80
2021/09/18 09:25:43;;;;;;;5.15;4.32;;;;;;;16.76;80.12;101143.63;4932018;29;20059;-79
2021/09/18 09:28:33;;;;;;;6.40;4.97;;;;;;;16.76;79.80;101140.97;4941658;29;20146;-82
2021/09/18 09:31:24;;;;;;;5.18;4.68;;;;;;;16.83;79.86;101146.97;4918826;29;20051;-86
2021/09/18 09:34:15;;;;;;;4.60;3.45;;;;;;;16.90;79.35;101143.28;4901114;29;20127;-83
2021/09/18 09:36:49;;;;;;;5.30;4.80;;;;;;;17.08;79.17;101144.56;4907322;29;20067;-83
2021/09/18 09:39:24;;;;;;;4.30;3.90;;;;;;;17.24;78.46;101149.41;4921091;29;20059;-81
2021/09/18 09:41:54;;;;;;;5.88;5.25;;;;;;;17.36;77.71;101149.94;4921908;29;20134;-85
2021/09/18 09:44:25;;;;;;;8.43;4.43;;;;;;;17.33;77.90;101150.00;4938726;29;20044;-82
2021/09/18 09:47:18;;;;;;;4.10;3.80;;;;;;;17.40;77.68;101139.22;4925333;29;20074;-81
2021/09/18 09:49:57;;;;;;;5.03;4.63;;;;;;;17.51;76.87;101145.94;4941810;29;20040;-84
2021/09/18 09:52:34;;;;;;;5.68;3.67;;;;;;;17.61;76.74;101145.66;4923430;29;20142;-81
2021/09/18 09:55:16;;;;;;;5.40;4.60;;;;;;;17.87;75.60;101147.50;4906377;29;20066;-84
2021/09/18 09:57:55;;;;;;;4.38;3.95;;;;;;;18.14;74.71;101142.28;4906853;29;20051;-81
2021/09/18 10:00:22;;;;;;;4.80;3.15;;;;;;;18.43;73.18;101140.44;4918749;29;20058;-85
2021/09/18 10:02:49;;;;;;;3.40;3.15;;;;;;;18.73;71.95;101153.53;4920296;29;20422;-81
2021/09/18 10:05:17;;;;;;;3.70;3.40;;;;;;;19.00;71.17;101155.22;4920550;29;20079;-83
2021/09/18 10:07:44;;;;;;;3.13;2.88;;;;;;;19.17;70.28;101151.09;4904724;29;20209;-85
2021/09/18 10:10:13;;;;;;;4.82;3.22;;;;;;;19.23;70.06;101153.53;4903671;29;20106;-82
2021/09/18 10:12:41;;;;;;;3.08;2.88;;;;;;;19.40;69.44;101158.22;4904241;29;20063;-86
2021/09/18 10:15:10;;;;;;;3.13;2.83;;;;;;;19.63;68.70;101157.34;4914206;29;20075;-86
2021/09/18 10:17:45;;;;;;;2.80;2.60;;;;;;;19.99;67.27;101148.84;4917583;29;20051;-85
2021/09/18 10:23:28;;;;;;;4.22;3.13;;;;;;;20.31;65.51;101154.66;4954872;28;20103;-87
2021/09/18 10:32:51;;;;;;;3.10;2.90;;;;;;;19.71;66.41;101156.16;4943485;28;20044;-87
2021/09/18 10:39:20;;;;;;;2.80;2.60;;;;;;;20.03;65.81;101148.75;4942410;29;20793;-85
2021/09/18 10:41:57;;;;;;;2.67;2.47;;;;;;;20.04;65.93;101148.66;4897570;29;22717;-85
2021/09/18 10:44:46;;;;;;;2.65;2.45;;;;;;;20.19;65.62;101151.63;4897418;29;20052;-85
2021/09/18 10:47:37;;;;;;;2.40;2.20;;;;;;;20.53;63.05;101159.03;4913560;29;20550;-86
2021/09/18 10:50:28;;;;;;;1.83;1.73;;;;;;;20.74;63.93;101154.66;4908730;29;20675;-85
2021/09/18 10:53:15;;;;;;;1.83;1.70;;;;;;;20.75;62.08;101151.03;4902983;29;20167;-84
2021/09/18 10:56:06;;;;;;;1.88;1.50;;;;;;;20.76;63.24;101146.59;4912118;28;20078;-84
2021/09/18 10:58:33;;;;;;;1.63;1.52;;;;;;;20.95;62.58;101151.94;4896433;29;21240;-85
2021/09/18 11:01:02;;;;;;;2.22;1.63;;;;;;;21.22;61.01;101146.31;4900052;29;20047;-85
2021/09/18 11:03:46;;;;;;;2.63;2.30;;;;;;;21.19;60.55;101152.66;4911392;29;20150;-84
2021/09/18 11:06:41;;;;;;;2.65;2.03;;;;;;;20.85;60.73;101150.66;4898621;29;20047;-85
2021/09/18 11:09:08;;;;;;;1.88;1.65;;;;;;;20.58;62.54;101156.19;4908785;29;20753;-85
2021/09/18 11:11:35;;;;;;;1.77;1.60;;;;;;;20.51;62.88;101152.94;4900489;29;20063;-85
2021/09/18 11:14:22;;;;;;;2.40;2.20;;;;;;;20.66;62.40;101154.94;4895088;29;20526;-85
2021/09/18 11:16:49;;;;;;;1.70;1.60;;;;;;;20.91;61.61;101148.56;4897225;29;20040;-85
2021/09/18 11:19:17;;;;;;;1.92;1.80;;;;;;;21.11;60.77;101149.47;4914763;29;20075;-85
2021/09/18 11:21:46;;;;;;;1.27;1.15;;;;;;;21.24;60.27;101155.97;4915566;29;20450;-85
2021/09/18 11:24:15;;;;;;;1.55;1.45;;;;;;;21.30;59.96;101155.69;4917266;29;20062;-87
2021/09/18 11:26:51;;;;;;;1.77;0.90;;;;;;;21.33;59.84;101154.69;4910928;28;20051;-85
2021/09/18 11:29:29;;;;;;;0.82;0.82;;;;;;;21.33;59.41;101160.00;4898932;29;20048;-85
2021/09/18 11:32:32;;;;;;;1.50;1.30;;;;;;;21.25;59.35;101156.81;4920435;28;20031;-86
2021/09/18 11:34:59;;;;;;;1.58;1.40;;;;;;;20.94;60.04;101161.72;4914116;28;20048;-85
2021/09/18 11:37:35;;;;;;;1.80;1.70;;;;;;;20.79;60.24;101155.31;4910027;29;20071;-85
2021/09/18 11:40:09;;;;;;;2.53;1.10;;;;;;;20.45;61.02;101156.69;4897633;29;20099;-85
2021/09/18 11:42:44;;;;;;;1.50;1.20;;;;;;;20.14;61.81;101157.13;4912759;29;20051;-85
2021/09/18 11:45:18;;;;;;;1.50;1.40;;;;;;;19.87;62.73;101159.97;4894366;29;20526;-85
2021/09/18 11:47:51;;;;;;;1.00;1.00;;;;;;;19.66;63.39;101161.66;4930817;28;20542;-86
2021/09/18 11:50:39;;;;;;;1.40;1.17;;;;;;;19.47;63.84;101157.03;4909264;28;20398;-86